createdAt,value
2023-05-12T00:01:19.928Z,3.61
2023-05-12T00:03:46.803Z,3.59
2023-05-12T00:06:13.575Z,3.42
2023-05-12T00:08:40.106Z,3.57
2023-05-12T00:11:06.727Z,3.27
2023-05-12T00:13:33.310Z,3.64
2023-05-12T00:16:00.008Z,3.68
2023-05-12T00:18:28.368Z,3.76
2023-05-12T00:20:55.658Z,3.45
2023-05-12T00:23:22.942Z,3.30
2023-05-12T00:25:50.099Z,3.66
2023-05-12T00:28:17.652Z,3.81
2023-05-12T00:30:44.119Z,3.45
2023-05-12T00:33:10.641Z,3.64
2023-05-12T00:35:37.128Z,3.81
2023-05-12T00:38:03.769Z,3.83
2023-05-12T00:40:30.269Z,3.71
2023-05-12T00:42:57.102Z,3.74
2023-05-12T00:45:23.854Z,4.22
2023-05-12T00:47:51.738Z,3.85
2023-05-12T00:50:18.997Z,3.80
2023-05-12T00:52:46.521Z,3.73
2023-05-12T00:55:13.278Z,3.69
2023-05-12T00:57:40.722Z,3.81
2023-05-12T01:00:07.777Z,3.89
2023-05-12T01:02:34.852Z,3.91
2023-05-12T01:05:01.577Z,3.65
2023-05-12T01:07:31.989Z,3.54
2023-05-12T01:09:59.355Z,3.70
2023-05-12T01:12:26.831Z,4.19
2023-05-12T01:14:54.910Z,4.15
2023-05-12T01:17:23.962Z,4.00
2023-05-12T01:19:53.580Z,3.80
2023-05-12T01:22:20.140Z,4.36
2023-05-12T01:24:49.711Z,3.59
2023-05-12T01:27:17.570Z,3.59
2023-05-12T01:29:47.033Z,3.78
2023-05-12T01:32:14.631Z,3.93
2023-05-12T01:34:43.180Z,3.64
2023-05-12T01:37:10.607Z,3.44
2023-05-12T01:39:37.914Z,3.64
2023-05-12T01:42:07.392Z,4.03
2023-05-12T01:44:34.081Z,3.61
2023-05-12T01:47:01.586Z,3.64
2023-05-12T01:49:28.455Z,3.86
2023-05-12T01:51:54.965Z,4.06
2023-05-12T01:54:21.501Z,4.31
2023-05-12T01:56:48.172Z,3.79
2023-05-12T01:59:14.686Z,3.43
2023-05-12T02:01:41.288Z,3.45
2023-05-12T02:04:09.002Z,3.37
2023-05-12T02:06:35.872Z,3.41
2023-05-12T02:09:02.855Z,3.65
2023-05-12T02:11:29.453Z,3.35
2023-05-12T02:13:56.292Z,3.41
2023-05-12T02:16:23.083Z,2.96
2023-05-12T02:18:49.678Z,3.66
2023-05-12T02:21:16.198Z,3.35
2023-05-12T02:23:42.847Z,3.41
2023-05-12T02:26:09.554Z,3.45
2023-05-12T02:28:36.691Z,3.19
2023-05-12T02:31:03.860Z,3.48
2023-05-12T02:33:30.482Z,3.48
2023-05-12T02:35:57.021Z,3.16
2023-05-12T02:38:23.583Z,2.93
2023-05-12T02:40:50.125Z,3.13
2023-05-12T02:43:16.574Z,3.05
2023-05-12T02:45:43.197Z,3.02
2023-05-12T02:48:09.766Z,3.00
2023-05-12T02:50:36.260Z,2.85
2023-05-12T02:53:02.698Z,2.64
2023-05-12T02:55:30.282Z,2.57
2023-05-12T02:57:57.104Z,2.49
2023-05-12T03:00:23.733Z,2.55
2023-05-12T03:02:51.116Z,2.58
2023-05-12T03:05:17.725Z,2.66
2023-05-12T03:07:44.355Z,2.53
2023-05-12T03:10:10.986Z,2.90
2023-05-12T03:12:37.682Z,2.63
2023-05-12T03:15:04.782Z,2.59
2023-05-12T03:17:31.543Z,2.77
2023-05-12T03:19:58.081Z,2.56
2023-05-12T03:22:24.775Z,2.66
2023-05-12T03:24:51.933Z,2.55
2023-05-12T03:27:18.561Z,2.65
2023-05-12T03:29:45.061Z,2.69
2023-05-12T03:32:11.580Z,3.00
2023-05-12T03:34:38.182Z,3.10
2023-05-12T03:37:04.818Z,2.78
2023-05-12T03:39:31.348Z,2.80
2023-05-12T03:41:57.787Z,2.96
2023-05-12T03:44:24.393Z,2.79
2023-05-12T03:46:51.028Z,2.60
2023-05-12T03:49:17.558Z,2.58
2023-05-12T03:51:44.108Z,2.87
2023-05-12T03:54:10.863Z,2.59
2023-05-12T03:56:37.430Z,2.72
2023-05-12T03:59:04.123Z,2.94
2023-05-12T04:01:30.602Z,3.06
2023-05-12T04:03:57.321Z,3.07
2023-05-12T04:06:23.964Z,2.98
2023-05-12T04:08:50.583Z,3.11
2023-05-12T04:11:17.032Z,3.56
2023-05-12T04:13:43.986Z,4.53
2023-05-12T04:16:10.541Z,5.69
2023-05-12T04:18:37.098Z,5.35
2023-05-12T04:21:03.985Z,6.57
2023-05-12T04:23:30.558Z,7.14
2023-05-12T04:25:57.336Z,7.12
2023-05-12T04:28:23.869Z,8.84
2023-05-12T04:30:50.517Z,8.37
2023-05-12T04:33:17.036Z,9.50
2023-05-12T04:35:43.498Z,10.16
2023-05-12T04:38:10.163Z,9.98
2023-05-12T04:40:36.685Z,11.51
2023-05-12T04:43:03.172Z,12.71
2023-05-12T04:45:29.714Z,12.37
2023-05-12T04:47:56.252Z,13.05
2023-05-12T04:50:22.805Z,13.24
2023-05-12T04:52:49.345Z,14.65
2023-05-12T04:55:15.866Z,13.44
2023-05-12T04:57:42.348Z,15.53
2023-05-12T05:00:09.354Z,16.00
2023-05-12T05:02:35.983Z,19.00
2023-05-12T05:05:02.709Z,19.30
2023-05-12T05:07:30.073Z,19.43
2023-05-12T05:09:56.557Z,19.52
2023-05-12T05:12:22.973Z,20.30
2023-05-12T05:14:49.662Z,21.63
2023-05-12T05:17:16.196Z,21.63
2023-05-12T05:19:55.218Z,21.09
2023-05-12T05:22:25.453Z,26.24
2023-05-12T05:24:52.154Z,21.85
2023-05-12T05:27:19.050Z,20.66
2023-05-12T05:29:45.817Z,19.39
2023-05-12T05:32:12.446Z,19.68
2023-05-12T05:34:39.045Z,17.85
2023-05-12T05:37:05.916Z,19.67
2023-05-12T05:39:32.660Z,17.91
2023-05-12T05:41:59.224Z,18.98
2023-05-12T05:44:25.806Z,18.96
2023-05-12T05:46:52.382Z,19.32
2023-05-12T05:49:19.135Z,19.42
2023-05-12T05:51:45.630Z,18.87
2023-05-12T05:54:12.248Z,17.52
2023-05-12T05:56:38.769Z,16.86
2023-05-12T05:59:05.569Z,16.28
2023-05-12T06:01:32.963Z,17.89
2023-05-12T06:03:59.791Z,18.65
2023-05-12T06:06:26.479Z,17.44
2023-05-12T06:08:55.914Z,19.60
2023-05-12T06:11:22.550Z,17.74
2023-05-12T06:13:49.075Z,16.27
2023-05-12T06:16:15.594Z,17.46
2023-05-12T06:18:42.135Z,18.51
2023-05-12T06:21:09.932Z,18.90
2023-05-12T06:23:36.529Z,18.97
2023-05-12T06:26:04.265Z,19.30
2023-05-12T06:28:30.861Z,16.75
2023-05-12T06:30:59.402Z,18.44
2023-05-12T06:33:25.929Z,19.23
2023-05-12T06:35:52.453Z,41.63
2023-05-12T06:38:18.991Z,41.19
2023-05-12T06:40:45.421Z,20.62
2023-05-12T06:43:13.009Z,18.86
2023-05-12T06:45:39.645Z,18.62
2023-05-12T06:48:06.312Z,18.83
2023-05-12T06:50:32.895Z,15.41
2023-05-12T06:52:59.424Z,15.57
2023-05-12T06:55:25.993Z,14.89
2023-05-12T06:57:55.954Z,15.22
2023-05-12T07:00:23.432Z,15.77
2023-05-12T07:02:49.947Z,17.22
2023-05-12T07:05:16.673Z,18.55
2023-05-12T07:07:43.246Z,19.00
2023-05-12T07:10:10.311Z,18.93
2023-05-12T07:12:37.438Z,18.01
2023-05-12T07:15:04.601Z,17.62
2023-05-12T07:17:31.174Z,17.59
2023-05-12T07:19:57.786Z,17.48
2023-05-12T07:22:24.523Z,17.54
2023-05-12T07:24:51.395Z,16.17
2023-05-12T07:27:18.274Z,17.64
2023-05-12T07:29:44.856Z,18.67
2023-05-12T07:32:11.807Z,17.54
2023-05-12T07:34:38.816Z,17.55
2023-05-12T07:37:06.422Z,17.82
2023-05-12T07:39:33.023Z,18.33
2023-05-12T07:41:59.660Z,18.54
2023-05-12T07:44:26.429Z,18.27
2023-05-12T07:46:53.183Z,17.81
2023-05-12T07:49:19.896Z,16.85
2023-05-12T07:51:46.520Z,19.00
2023-05-12T07:54:13.486Z,19.06
2023-05-12T07:56:40.097Z,18.64
2023-05-12T07:59:07.332Z,18.53
2023-05-12T08:01:34.905Z,19.20
2023-05-12T08:04:01.644Z,20.63
2023-05-12T08:06:28.420Z,19.46
2023-05-12T08:08:58.113Z,17.34
2023-05-12T08:11:25.076Z,19.30
2023-05-12T08:13:51.970Z,19.63
2023-05-12T08:16:18.808Z,19.76
2023-05-12T08:18:45.499Z,19.02
2023-05-12T08:21:12.088Z,17.57
2023-05-12T08:23:38.644Z,18.36
2023-05-12T08:26:05.473Z,18.39
2023-05-12T08:28:32.313Z,19.90
2023-05-12T08:30:59.017Z,19.53
2023-05-12T08:33:25.936Z,19.56
2023-05-12T08:35:52.510Z,19.68
2023-05-12T08:38:19.303Z,18.46
2023-05-12T08:41:09.749Z,18.30
2023-05-12T08:43:48.106Z,18.29
2023-05-12T08:46:14.957Z,18.53
2023-05-12T08:48:41.548Z,18.70
2023-05-12T08:51:12.963Z,18.14
2023-05-12T08:53:40.967Z,18.64
2023-05-12T08:58:42.086Z,19.73
2023-05-12T09:01:11.913Z,16.66
2023-05-12T09:03:38.986Z,18.53
2023-05-12T09:06:06.741Z,17.74
2023-05-12T09:08:35.094Z,18.62
2023-05-12T09:11:02.566Z,19.03
2023-05-12T09:13:32.089Z,18.82
2023-05-12T09:16:01.004Z,19.49
2023-05-12T09:18:44.080Z,17.90
2023-05-12T09:21:11.959Z,18.14
2023-05-12T09:23:38.489Z,19.02
2023-05-12T09:26:05.316Z,19.03
2023-05-12T09:28:36.590Z,16.76
2023-05-12T09:31:14.834Z,17.04
2023-05-12T09:33:41.585Z,17.29
2023-05-12T09:36:08.575Z,16.13
2023-05-12T09:38:35.108Z,17.91
2023-05-12T09:41:01.601Z,16.41
2023-05-12T09:43:28.115Z,18.43
2023-05-12T09:45:55.650Z,18.14
2023-05-12T09:48:22.319Z,17.10
2023-05-12T09:50:50.589Z,16.45
2023-05-12T09:53:19.287Z,16.52
2023-05-12T09:55:47.080Z,17.37
2023-05-12T09:58:15.380Z,18.03
2023-05-12T10:01:05.962Z,18.41
2023-05-12T10:03:30.859Z,19.07
2023-05-12T10:06:03.492Z,20.87
2023-05-12T10:08:34.442Z,18.78
2023-05-12T10:11:02.366Z,17.39
2023-05-12T10:13:29.427Z,16.10
2023-05-12T10:15:57.195Z,17.77
2023-05-12T10:18:24.305Z,19.16
2023-05-12T10:20:52.635Z,19.72
2023-05-12T10:23:19.841Z,19.75
2023-05-12T10:25:47.825Z,19.27
2023-05-12T10:28:14.741Z,18.81
2023-05-12T10:30:43.123Z,17.03
2023-05-12T10:33:11.533Z,15.21
2023-05-12T10:35:39.808Z,15.37
2023-05-12T10:38:07.597Z,17.75
2023-05-12T10:40:34.425Z,15.72
2023-05-12T10:43:01.476Z,17.76
2023-05-12T10:45:28.230Z,16.14
2023-05-12T10:48:04.967Z,16.08
2023-05-12T10:50:31.655Z,17.11
2023-05-12T10:52:58.232Z,16.32
2023-05-12T10:55:32.334Z,17.06
2023-05-12T10:58:25.926Z,17.61
2023-05-12T11:00:55.149Z,15.79
2023-05-12T11:03:25.949Z,17.19
2023-05-12T11:06:04.686Z,18.34
2023-05-12T11:08:32.694Z,17.20
2023-05-12T11:10:59.517Z,14.88
2023-05-12T11:13:26.391Z,15.99
2023-05-12T11:15:52.892Z,15.00
2023-05-12T11:18:23.428Z,16.06
2023-05-12T11:20:50.893Z,15.41
2023-05-12T11:23:25.154Z,14.94
2023-05-12T11:25:51.959Z,16.36
2023-05-12T11:28:19.052Z,17.80
2023-05-12T11:30:49.472Z,16.37
2023-05-12T11:33:19.644Z,15.80
2023-05-12T11:35:46.221Z,15.34
2023-05-12T11:38:17.364Z,15.23
2023-05-12T11:40:44.807Z,15.85
2023-05-12T11:43:12.281Z,15.05
2023-05-12T11:45:38.849Z,17.09
2023-05-12T11:48:07.577Z,16.48
2023-05-12T11:50:36.702Z,16.04
2023-05-12T11:53:03.256Z,17.99
2023-05-12T11:55:30.826Z,18.09
2023-05-12T11:57:57.975Z,17.45
2023-05-12T12:00:28.578Z,16.27
2023-05-12T12:03:05.088Z,15.41
2023-05-12T12:05:31.598Z,14.37
2023-05-12T12:08:04.874Z,15.68
2023-05-12T12:10:31.547Z,17.21
2023-05-12T12:12:59.569Z,16.51
2023-05-12T12:15:26.037Z,16.86
2023-05-12T12:17:52.749Z,15.00
2023-05-12T12:20:19.315Z,13.42
2023-05-12T12:22:45.845Z,13.98
2023-05-12T12:25:12.601Z,14.77
2023-05-12T12:27:39.183Z,15.38
2023-05-12T12:30:06.052Z,14.54
2023-05-12T12:32:33.034Z,14.25
2023-05-12T12:35:01.622Z,12.85
2023-05-12T12:37:28.119Z,13.26
2023-05-12T12:39:54.720Z,13.30
2023-05-12T12:42:21.258Z,13.74
2023-05-12T12:44:50.188Z,12.78
2023-05-12T12:47:17.404Z,12.86
2023-05-12T12:49:44.968Z,14.65
2023-05-12T12:52:11.620Z,13.63
2023-05-12T12:54:38.157Z,13.30
2023-05-12T12:57:04.765Z,11.87
2023-05-12T12:59:31.442Z,11.03
2023-05-12T13:02:00.136Z,11.20
2023-05-12T13:04:26.782Z,12.67
2023-05-12T13:06:53.367Z,11.70
2023-05-12T13:09:20.241Z,11.72
2023-05-12T13:11:47.248Z,11.46
2023-05-12T13:14:14.113Z,11.11
2023-05-12T13:16:40.654Z,10.73
2023-05-12T13:19:08.150Z,9.40
2023-05-12T13:21:35.054Z,9.21
2023-05-12T13:24:01.692Z,9.31
2023-05-12T13:26:28.574Z,8.99
2023-05-12T13:28:55.075Z,9.07
2023-05-12T13:31:21.856Z,9.96
2023-05-12T13:33:48.561Z,8.05
2023-05-12T13:36:15.082Z,8.88
2023-05-12T13:38:41.793Z,9.20
2023-05-12T13:41:08.333Z,8.47
2023-05-12T13:43:34.916Z,9.04
2023-05-12T13:46:01.508Z,9.68
2023-05-12T13:48:28.074Z,8.33
2023-05-12T13:50:54.505Z,7.92
2023-05-12T13:53:21.161Z,8.83
2023-05-12T13:55:48.708Z,7.99
2023-05-12T13:58:15.238Z,8.10
2023-05-12T14:00:41.965Z,7.46
2023-05-12T14:03:08.592Z,7.49
2023-05-12T14:05:35.307Z,6.93
2023-05-12T14:08:01.953Z,6.77
2023-05-12T14:10:28.623Z,7.18
2023-05-12T14:12:55.436Z,8.00
2023-05-12T14:15:32.563Z,7.35
2023-05-12T14:18:06.964Z,7.16
2023-05-12T14:20:34.004Z,6.91
2023-05-12T14:23:00.743Z,7.29
2023-05-12T14:25:27.463Z,7.12
2023-05-12T14:27:54.016Z,7.02
2023-05-12T14:30:21.726Z,6.32
2023-05-12T14:32:48.440Z,6.86
2023-05-12T14:35:15.050Z,7.48
2023-05-12T14:37:41.696Z,6.23
2023-05-12T14:40:08.748Z,7.17
2023-05-12T14:42:35.520Z,7.66
2023-05-12T14:45:02.638Z,28.30
2023-05-12T14:47:29.192Z,22.60
2023-05-12T14:49:55.915Z,36.05
2023-05-12T14:52:22.456Z,34.83
2023-05-12T14:54:49.141Z,28.86
2023-05-12T14:57:15.816Z,27.15
2023-05-12T14:59:42.335Z,18.72
2023-05-12T15:02:08.897Z,19.09
2023-05-12T15:04:35.519Z,32.28
2023-05-12T15:07:02.064Z,21.37
2023-05-12T15:09:28.770Z,25.23
2023-05-12T15:11:55.321Z,23.87
2023-05-12T15:14:21.965Z,17.99
2023-05-12T15:16:48.569Z,18.76
2023-05-12T15:19:15.476Z,21.24
2023-05-12T15:21:42.155Z,17.08
2023-05-12T15:24:08.804Z,11.78
2023-05-12T15:26:38.304Z,11.24
2023-05-12T15:29:07.366Z,10.51
2023-05-12T15:31:34.401Z,10.95
2023-05-12T15:34:01.009Z,11.24
2023-05-12T15:36:27.561Z,10.38
2023-05-12T15:38:54.317Z,9.82
2023-05-12T15:41:20.891Z,9.99
2023-05-12T15:43:47.486Z,9.97
2023-05-12T15:46:14.130Z,9.45
2023-05-12T15:48:40.732Z,10.05
2023-05-12T15:51:07.358Z,11.14
2023-05-12T15:53:34.230Z,12.24
2023-05-12T15:56:04.655Z,10.84
2023-05-12T15:58:31.565Z,10.64
2023-05-12T16:00:58.248Z,10.95
2023-05-12T16:03:25.190Z,11.02
2023-05-12T16:05:52.371Z,9.91
2023-05-12T16:08:19.133Z,9.36
2023-05-12T16:10:45.695Z,9.37
2023-05-12T16:13:12.244Z,8.49
2023-05-12T16:15:38.805Z,8.91
2023-05-12T16:18:07.587Z,8.54
2023-05-12T16:20:35.767Z,8.31
2023-05-12T16:23:02.611Z,8.15
2023-05-12T16:25:29.206Z,8.01
2023-05-12T16:27:55.971Z,7.68
2023-05-12T16:30:22.541Z,7.95
2023-05-12T16:32:49.255Z,8.61
2023-05-12T16:35:15.974Z,8.92
2023-05-12T16:37:42.700Z,8.46
2023-05-12T16:40:09.707Z,9.59
2023-05-12T16:42:36.630Z,10.46
2023-05-12T16:45:03.610Z,9.55
2023-05-12T16:47:30.351Z,9.35
2023-05-12T16:49:58.325Z,9.25
2023-05-12T16:52:25.310Z,9.01
2023-05-12T16:54:51.876Z,7.61
2023-05-12T16:57:19.126Z,7.03
2023-05-12T16:59:45.827Z,6.69
2023-05-12T17:02:12.373Z,6.92
2023-05-12T17:04:39.829Z,8.29
2023-05-12T17:07:06.425Z,9.19
2023-05-12T17:09:33.189Z,8.87
2023-05-12T17:11:59.692Z,8.23
2023-05-12T17:14:26.213Z,7.75
2023-05-12T17:16:53.076Z,10.00
2023-05-12T17:19:19.613Z,13.07
2023-05-12T17:21:46.135Z,12.75
2023-05-12T17:24:12.663Z,12.94
2023-05-12T17:26:39.412Z,13.65
2023-05-12T17:29:06.053Z,12.12
2023-05-12T17:31:32.650Z,14.23
2023-05-12T17:33:59.194Z,13.42
2023-05-12T17:36:25.907Z,14.17
2023-05-12T17:38:52.512Z,13.37
2023-05-12T17:41:19.381Z,14.07
2023-05-12T17:43:46.277Z,15.38
2023-05-12T17:46:12.924Z,15.32
2023-05-12T17:48:39.502Z,16.26
2023-05-12T17:51:06.434Z,13.60
2023-05-12T17:53:33.148Z,14.89
2023-05-12T17:56:00.518Z,13.09
2023-05-12T17:58:27.110Z,14.66
2023-05-12T18:00:53.805Z,13.95
2023-05-12T18:03:23.835Z,13.82
2023-05-12T18:05:52.041Z,12.76
2023-05-12T18:08:18.833Z,12.84
2023-05-12T18:10:46.674Z,13.78
2023-05-12T18:13:14.875Z,13.16
2023-05-12T18:15:41.920Z,12.02
2023-05-12T18:18:10.042Z,12.23
2023-05-12T18:20:36.886Z,12.22
2023-05-12T18:23:03.582Z,12.38
2023-05-12T18:25:30.291Z,12.72
2023-05-12T18:27:56.898Z,12.16
2023-05-12T18:30:23.438Z,11.55
2023-05-12T18:32:50.749Z,10.32
2023-05-12T18:35:17.478Z,10.92
2023-05-12T18:37:44.280Z,11.49
2023-05-12T18:40:11.274Z,11.10
2023-05-12T18:42:38.363Z,11.17
2023-05-12T18:45:05.335Z,10.75
2023-05-12T18:47:31.955Z,11.00
2023-05-12T18:49:58.485Z,10.59
2023-05-12T18:52:25.098Z,11.07
2023-05-12T18:54:51.595Z,10.60
2023-05-12T18:57:18.373Z,11.36
2023-05-12T18:59:44.946Z,10.27
2023-05-12T19:02:11.671Z,10.51
2023-05-12T19:04:38.388Z,10.07
2023-05-12T19:07:06.682Z,10.00
2023-05-12T19:09:33.247Z,10.54
2023-05-12T19:11:59.781Z,10.10
2023-05-12T19:14:26.423Z,10.58
2023-05-12T19:16:53.142Z,10.73
2023-05-12T19:19:19.925Z,9.96
2023-05-12T19:21:46.739Z,10.22
2023-05-12T19:24:13.574Z,9.90
2023-05-12T19:26:40.542Z,9.24
2023-05-12T19:29:07.251Z,9.10
2023-05-12T19:31:34.410Z,10.26
2023-05-12T19:34:01.124Z,9.43
2023-05-12T19:36:29.089Z,9.44
2023-05-12T19:38:59.448Z,9.82
2023-05-12T19:41:29.435Z,9.17
2023-05-12T19:43:56.110Z,9.99
2023-05-12T19:46:22.787Z,10.14
2023-05-12T19:48:50.864Z,9.15
2023-05-12T19:51:17.523Z,10.22
2023-05-12T19:53:44.350Z,9.92
2023-05-12T19:56:11.212Z,9.73
2023-05-12T19:58:38.214Z,10.36
2023-05-12T20:01:05.073Z,10.37
2023-05-12T20:03:31.887Z,10.49
2023-05-12T20:05:58.987Z,11.25
2023-05-12T20:08:25.685Z,11.38
2023-05-12T20:10:52.306Z,11.79
2023-05-12T20:13:19.133Z,11.87
2023-05-12T20:15:45.823Z,12.26
2023-05-12T20:18:14.833Z,12.53
2023-05-12T20:20:42.170Z,13.61
2023-05-12T20:23:08.933Z,13.42
2023-05-12T20:25:37.345Z,13.01
2023-05-12T20:28:03.919Z,14.48
2023-05-12T20:30:30.566Z,14.32
2023-05-12T20:32:57.352Z,14.84
2023-05-12T20:35:24.147Z,14.76
2023-05-12T20:37:51.203Z,14.65
2023-05-12T20:40:17.977Z,15.27
2023-05-12T20:42:47.762Z,15.59
2023-05-12T20:45:14.842Z,16.28
2023-05-12T20:47:42.001Z,15.97
2023-05-12T20:50:09.422Z,15.20
2023-05-12T20:52:39.962Z,15.62
2023-05-12T20:55:07.214Z,15.44
2023-05-12T20:57:34.139Z,15.52
2023-05-12T21:00:00.769Z,16.87
2023-05-12T21:02:28.630Z,16.68
2023-05-12T21:04:55.779Z,14.57
2023-05-12T21:07:22.375Z,17.96
2023-05-12T21:09:49.297Z,17.38
2023-05-12T21:12:16.112Z,17.51
2023-05-12T21:14:43.476Z,16.84
2023-05-12T21:17:10.679Z,16.94
2023-05-12T21:19:38.875Z,17.89
2023-05-12T21:22:06.682Z,18.15
2023-05-12T21:24:33.856Z,18.39
2023-05-12T21:27:04.281Z,18.29
2023-05-12T21:29:31.469Z,18.52
2023-05-12T21:31:58.334Z,18.37
2023-05-12T21:34:25.109Z,18.52
2023-05-12T21:36:51.772Z,18.20
2023-05-12T21:39:18.408Z,16.72
2023-05-12T21:41:45.003Z,15.54
2023-05-12T21:44:11.656Z,15.92
2023-05-12T21:46:38.399Z,15.26
2023-05-12T21:49:05.065Z,14.60
2023-05-12T21:51:33.167Z,15.16
2023-05-12T21:54:00.022Z,14.39
2023-05-12T21:56:26.830Z,14.07
2023-05-12T21:58:53.469Z,14.63
2023-05-12T22:01:20.208Z,13.57
2023-05-12T22:03:46.880Z,14.56
2023-05-12T22:06:13.475Z,13.87
2023-05-12T22:08:40.024Z,12.77
2023-05-12T22:11:06.549Z,12.76
2023-05-12T22:13:33.061Z,12.49
2023-05-12T22:16:00.056Z,12.55
2023-05-12T22:18:26.674Z,12.13
2023-05-12T22:20:53.336Z,12.35
2023-05-12T22:23:20.025Z,10.99
2023-05-12T22:25:46.903Z,11.73
2023-05-12T22:28:13.635Z,10.59
2023-05-12T22:30:41.623Z,10.82
2023-05-12T22:33:08.250Z,10.06
2023-05-12T22:35:34.860Z,10.51
2023-05-12T22:38:01.556Z,10.38
2023-05-12T22:40:28.069Z,9.98
2023-05-12T22:42:54.566Z,9.37
2023-05-12T22:45:21.052Z,9.70
2023-05-12T22:47:47.744Z,9.37
2023-05-12T22:50:14.390Z,9.63
2023-05-12T22:52:40.837Z,8.76
2023-05-12T22:55:07.491Z,8.80
2023-05-12T22:57:34.330Z,8.39
2023-05-12T23:00:00.837Z,8.51
2023-05-12T23:02:27.724Z,7.94
2023-05-12T23:04:54.245Z,8.51
2023-05-12T23:07:20.839Z,7.80
2023-05-12T23:09:47.272Z,8.02
2023-05-12T23:12:13.734Z,7.59
2023-05-12T23:14:40.225Z,7.31
2023-05-12T23:17:06.854Z,7.37
2023-05-12T23:19:33.345Z,7.59
2023-05-12T23:21:59.862Z,7.06
2023-05-12T23:24:26.374Z,7.30
2023-05-12T23:26:53.259Z,7.31
2023-05-12T23:29:19.794Z,7.33
2023-05-12T23:31:46.391Z,7.23
2023-05-12T23:34:12.828Z,7.31
2023-05-12T23:36:39.444Z,7.01
2023-05-12T23:39:06.299Z,7.15
2023-05-12T23:41:33.972Z,7.38
2023-05-12T23:44:00.588Z,7.08
2023-05-12T23:46:27.075Z,7.20
2023-05-12T23:48:54.684Z,7.45
2023-05-12T23:51:21.346Z,7.36
2023-05-12T23:53:48.137Z,7.44
2023-05-12T23:56:15.054Z,7.80
2023-05-12T23:58:41.903Z,7.67
